Time;durP1;ratioP1;P1;durP2;ratioP2;P2;SDS_P1;SDS_P2;PMS_P1;PMS_P2;Temp;Humidity;BMP_temperature;BMP_pressure;BME280_temperature;BME280_humidity;BME280_pressure;Samples;Min_cycle;Max_cycle;Signal;HPM_P1;HPM_P2
2022/10/06 00:00:29;;;;;;;8.35;1.67;;;;;;;15.62;64.90;102093.47;5061528;28;20041;-60
2022/10/06 00:02:55;;;;;;;9.88;1.58;;;;;;;15.70;64.85;102104.25;5054335;28;20379;-60
2022/10/06 00:05:20;;;;;;;7.45;1.60;;;;;;;15.69;65.01;102102.56;5062454;28;20036;-60
2022/10/06 00:07:46;;;;;;;7.18;1.50;;;;;;;15.71;65.00;102117.13;5055864;28;20103;-60
2022/10/06 00:10:11;;;;;;;7.53;1.60;;;;;;;15.67;64.73;102112.31;5055991;28;20052;-60
2022/10/06 00:12:40;;;;;;;12.88;1.50;;;;;;;15.67;64.90;102127.16;5068579;28;20067;-59
2022/10/06 00:15:07;;;;;;;4.82;1.52;;;;;;;15.67;64.69;102134.69;5074824;28;20025;-59
2022/10/06 00:17:32;;;;;;;9.98;1.83;;;;;;;15.71;64.72;102133.09;5057581;28;20444;-60
2022/10/06 00:19:57;;;;;;;7.95;1.38;;;;;;;15.59;65.10;102135.09;5062084;28;20032;-60
2022/10/06 00:22:23;;;;;;;9.90;1.58;;;;;;;15.57;65.10;102140.13;5054314;28;20041;-60
2022/10/06 00:24:48;;;;;;;10.77;1.83;;;;;;;15.60;64.96;102148.88;5062992;28;20032;-60
2022/10/06 00:27:13;;;;;;;6.40;1.55;;;;;;;15.58;65.20;102151.06;5077424;28;20044;-60
2022/10/06 00:29:41;;;;;;;8.32;1.65;;;;;;;15.53;65.51;102158.53;5056851;28;20037;-60
2022/10/06 00:32:08;;;;;;;6.20;1.75;;;;;;;15.51;65.59;102160.72;5057424;28;20411;-60
2022/10/06 00:34:35;;;;;;;8.88;1.65;;;;;;;15.55;65.69;102162.75;5057635;28;20036;-60
2022/10/06 00:37:01;;;;;;;8.65;1.85;;;;;;;15.49;65.75;102163.78;5058930;28;20542;-60
2022/10/06 00:39:26;;;;;;;9.25;1.70;;;;;;;15.51;65.81;102157.94;5053126;28;20044;-60
2022/10/06 00:41:51;;;;;;;10.68;2.15;;;;;;;15.49;65.33;102166.59;5058324;28;20103;-60
2022/10/06 00:44:17;;;;;;;6.78;1.42;;;;;;;15.43;65.40;102176.81;5057924;28;20191;-60
2022/10/06 00:46:47;;;;;;;7.45;1.73;;;;;;;15.41;65.60;102179.03;5061838;28;20024;-60
2022/10/06 00:49:19;;;;;;;7.28;1.50;;;;;;;15.36;65.79;102176.13;5065143;28;20044;-60
2022/10/06 00:51:50;;;;;;;8.10;1.88;;;;;;;15.35;65.81;102185.63;5076402;28;20029;-60
2022/10/06 00:54:17;;;;;;;9.90;1.98;;;;;;;15.34;65.39;102188.69;5066189;28;20380;-60
2022/10/06 00:56:43;;;;;;;7.93;1.60;;;;;;;15.30;65.28;102193.94;5071445;28;20028;-60
2022/10/06 00:59:14;;;;;;;10.00;1.80;;;;;;;15.27;65.36;102188.00;5070660;28;20028;-60
2022/10/06 01:01:45;;;;;;;8.20;1.85;;;;;;;15.24;65.26;102200.53;5072163;28;20043;-60
2022/10/06 01:04:13;;;;;;;7.13;1.63;;;;;;;15.30;65.45;102205.13;5065122;28;20060;-60
2022/10/06 01:06:45;;;;;;;6.75;1.70;;;;;;;15.27;65.28;102200.03;5078412;28;20067;-60
2022/10/06 01:09:15;;;;;;;11.18;1.65;;;;;;;15.30;65.04;102204.28;5072055;28;20052;-60
2022/10/06 01:11:41;;;;;;;8.68;1.88;;;;;;;15.25;64.93;102216.25;5072750;28;20123;-60
2022/10/06 01:14:06;;;;;;;7.30;1.67;;;;;;;15.29;64.77;102220.25;5071391;28;20060;-60
2022/10/06 01:16:36;;;;;;;8.20;2.05;;;;;;;15.30;64.23;102223.88;5062620;28;20075;-60
2022/10/06 01:19:05;;;;;;;9.25;1.92;;;;;;;15.26;64.24;102225.47;5055947;28;20036;-60
2022/10/06 01:21:34;;;;;;;9.63;1.60;;;;;;;15.23;63.97;102233.25;5072561;28;20525;-60
2022/10/06 01:24:01;;;;;;;11.50;1.85;;;;;;;15.15;63.64;102230.03;5082238;28;20032;-60
2022/10/06 01:26:28;;;;;;;7.60;1.83;;;;;;;15.12;64.21;102227.72;5073065;28;20481;-60
2022/10/06 01:28:54;;;;;;;9.90;1.70;;;;;;;15.18;64.01;102235.13;5074713;28;20044;-59
2022/10/06 01:31:20;;;;;;;7.38;1.88;;;;;;;15.16;63.90;102243.75;5073220;28;20032;-60
2022/10/06 01:33:50;;;;;;;7.90;1.83;;;;;;;15.10;64.08;102246.72;5069422;28;20102;-60
2022/10/06 01:36:15;;;;;;;8.88;1.80;;;;;;;15.15;63.71;102255.19;5068967;28;20116;-60
2022/10/06 01:38:41;;;;;;;9.27;1.77;;;;;;;15.16;63.71;102249.34;5059724;28;20116;-60
2022/10/06 01:41:06;;;;;;;9.23;2.25;;;;;;;15.12;63.44;102259.31;5053048;28;20041;-60
2022/10/06 01:43:31;;;;;;;9.82;1.80;;;;;;;15.03;64.16;102265.59;5069971;28;20037;-60
2022/10/06 01:45:57;;;;;;;7.03;1.55;;;;;;;15.02;63.90;102266.69;5054532;28;20076;-60
2022/10/06 01:48:23;;;;;;;11.43;2.08;;;;;;;15.04;63.41;102267.28;5055010;28;20025;-60
2022/10/06 01:50:49;;;;;;;6.25;2.00;;;;;;;15.05;63.56;102267.03;5056878;28;20024;-61
2022/10/06 01:53:16;;;;;;;10.50;2.00;;;;;;;15.05;63.36;102271.75;5053085;28;20058;-61
2022/10/06 01:55:41;;;;;;;8.93;2.03;;;;;;;15.07;63.49;102284.41;5065988;28;20472;-60
2022/10/06 01:58:08;;;;;;;7.45;1.60;;;;;;;15.06;63.23;102277.13;5092999;28;20032;-60
2022/10/06 02:00:33;;;;;;;6.30;1.75;;;;;;;15.02;62.87;102277.88;5073102;28;20585;-60
2022/10/06 02:02:58;;;;;;;10.05;1.67;;;;;;;15.04;63.16;102278.47;5072774;28;20111;-60
2022/10/06 02:05:23;;;;;;;7.47;1.80;;;;;;;14.95;63.40;102278.84;5070766;28;20035;-61
2022/10/06 02:07:49;;;;;;;7.70;1.75;;;;;;;15.00;62.98;102268.88;5055467;28;20040;-60
2022/10/06 02:10:14;;;;;;;12.68;2.10;;;;;;;14.95;62.99;102275.22;5056922;28;21122;-60
2022/10/06 02:12:39;;;;;;;10.23;1.92;;;;;;;14.90;63.20;102289.09;5090527;28;20024;-60
2022/10/06 02:15:05;;;;;;;9.90;2.25;;;;;;;14.81;63.16;102290.56;5072232;28;20028;-60
2022/10/06 02:17:31;;;;;;;11.77;2.25;;;;;;;14.88;62.90;102297.72;5052077;28;20075;-60
2022/10/06 02:19:56;;;;;;;11.15;2.00;;;;;;;14.82;62.85;102297.88;5051568;28;20124;-60
2022/10/06 02:22:21;;;;;;;7.00;1.80;;;;;;;14.87;63.06;102301.59;5067818;28;20033;-60
2022/10/06 02:24:46;;;;;;;8.82;1.80;;;;;;;14.84;63.18;102302.09;5067023;28;20068;-61
2022/10/06 02:27:12;;;;;;;7.35;1.88;;;;;;;14.89;62.68;102310.56;5082304;28;20122;-60
2022/10/06 02:29:37;;;;;;;11.77;2.15;;;;;;;14.83;62.91;102319.97;5051789;28;20040;-60
2022/10/06 02:32:02;;;;;;;8.88;1.77;;;;;;;14.81;63.00;102324.94;5052136;28;20021;-61
2022/10/06 02:34:28;;;;;;;11.32;2.35;;;;;;;14.78;62.92;102321.81;5058112;28;20029;-60
2022/10/06 02:36:53;;;;;;;8.15;1.75;;;;;;;14.81;63.05;102329.69;5069950;28;20031;-59
2022/10/06 02:39:18;;;;;;;10.73;2.15;;;;;;;14.72;63.14;102332.84;5064087;28;20029;-59
2022/10/06 02:41:43;;;;;;;9.35;2.00;;;;;;;14.75;63.53;102334.31;5076005;28;20032;-59
2022/10/06 02:44:09;;;;;;;9.18;2.22;;;;;;;14.73;63.11;102336.50;5073321;28;20075;-59
2022/10/06 02:46:34;;;;;;;13.15;2.35;;;;;;;14.68;63.45;102350.38;5052008;28;20025;-59
2022/10/06 02:48:59;;;;;;;12.52;2.45;;;;;;;14.62;63.50;102346.63;5063181;28;20065;-59
2022/10/06 02:51:25;;;;;;;8.23;1.88;;;;;;;14.64;63.70;102344.41;5054884;28;20063;-60
2022/10/06 02:53:50;;;;;;;15.88;2.45;;;;;;;14.62;63.46;102349.41;5064249;28;20427;-60
2022/10/06 02:56:21;;;;;;;11.60;2.70;;;;;;;14.61;63.88;102358.00;5055227;28;20081;-60
2022/10/06 02:58:47;;;;;;;10.45;1.88;;;;;;;14.53;63.77;102361.19;5070143;28;20025;-60
2022/10/06 03:01:15;;;;;;;12.07;2.00;;;;;;;14.53;63.99;102362.03;5057790;28;20396;-60
2022/10/06 03:03:41;;;;;;;9.93;2.20;;;;;;;14.52;63.75;102365.06;5053881;28;20029;-60
2022/10/06 03:06:22;;;;;;;12.65;2.17;;;;;;;14.47;63.77;102374.16;5061744;28;20025;-60
2022/10/06 03:08:59;;;;;;;9.15;2.10;;;;;;;14.40;64.44;102376.22;5050946;28;20029;-60
2022/10/06 03:11:30;;;;;;;9.13;2.03;;;;;;;14.44;64.13;102381.06;5050963;28;20345;-60
2022/10/06 03:13:56;;;;;;;11.40;2.22;;;;;;;14.43;64.21;102389.69;5053806;28;20117;-60
2022/10/06 03:16:23;;;;;;;8.52;2.17;;;;;;;14.40;64.13;102391.03;5058740;28;20122;-61
2022/10/06 03:18:49;;;;;;;13.85;2.33;;;;;;;14.42;64.28;102400.03;5074399;28;20702;-59
2022/10/06 03:21:19;;;;;;;9.63;2.03;;;;;;;14.41;64.19;102397.47;5066821;28;20036;-60
2022/10/06 03:23:47;;;;;;;11.23;2.38;;;;;;;14.36;64.18;102391.75;5061396;28;20139;-60
2022/10/06 03:26:15;;;;;;;11.30;1.90;;;;;;;14.25;64.52;102399.00;5070565;28;20016;-60
2022/10/06 03:28:40;;;;;;;12.63;2.05;;;;;;;14.32;64.04;102398.91;5069606;28;20463;-59
2022/10/06 03:31:06;;;;;;;10.65;2.35;;;;;;;14.35;64.42;102404.88;5071724;28;20031;-60
2022/10/06 03:33:33;;;;;;;8.63;2.05;;;;;;;14.33;64.31;102407.03;5085365;28;20051;-59
2022/10/06 03:36:04;;;;;;;12.95;2.25;;;;;;;14.34;64.32;102413.47;5067121;28;20055;-60
2022/10/06 03:38:31;;;;;;;9.27;2.40;;;;;;;14.20;64.18;102424.03;5060438;28;20481;-60
2022/10/06 03:41:02;;;;;;;12.13;2.88;;;;;;;14.28;64.19;102420.88;5050599;28;20477;-60
2022/10/06 03:43:27;;;;;;;10.55;2.25;;;;;;;14.26;63.98;102417.47;5050146;28;20040;-60
2022/10/06 03:45:56;;;;;;;13.73;2.45;;;;;;;14.23;64.23;102429.16;5070190;28;20385;-60
2022/10/06 03:48:22;;;;;;;9.90;2.10;;;;;;;14.20;64.11;102429.63;5058431;28;20373;-60
2022/10/06 03:50:58;;;;;;;9.27;2.10;;;;;;;14.17;64.46;102436.53;5063353;28;20032;-60
2022/10/06 03:53:26;;;;;;;11.32;2.35;;;;;;;14.12;64.25;102438.34;5050102;28;20028;-59
2022/10/06 03:56:11;;;;;;;11.43;2.53;;;;;;;14.10;64.16;102440.50;5061991;28;20020;-60
2022/10/06 03:58:39;;;;;;;8.98;2.13;;;;;;;14.09;64.17;102445.25;5070843;28;20101;-59
2022/10/06 04:01:10;;;;;;;10.63;2.42;;;;;;;14.08;64.21;102453.88;5073683;28;20024;-60
2022/10/06 04:03:36;;;;;;;10.90;2.00;;;;;;;14.02;64.30;102454.81;5072820;28;20078;-60
2022/10/06 04:06:04;;;;;;;11.50;2.50;;;;;;;14.04;64.00;102458.22;5073031;28;20405;-60
2022/10/06 04:08:32;;;;;;;9.55;1.92;;;;;;;14.01;64.02;102462.31;5070801;28;20507;-60
2022/10/06 04:11:05;;;;;;;9.65;2.60;;;;;;;13.95;64.23;102471.63;5067443;28;20039;-60
2022/10/06 04:13:30;;;;;;;12.40;2.45;;;;;;;13.87;64.08;102470.06;5059622;28;20028;-59
2022/10/06 04:15:56;;;;;;;16.95;2.22;;;;;;;13.92;63.75;102483.31;5071396;28;20410;-60
2022/10/06 04:18:21;;;;;;;15.35;2.80;;;;;;;13.93;64.23;102488.63;5055656;28;20080;-60
2022/10/06 04:20:46;;;;;;;14.38;2.67;;;;;;;13.88;64.02;102491.28;5053637;28;20082;-60
2022/10/06 04:23:12;;;;;;;12.48;2.67;;;;;;;13.85;63.79;102483.38;5069086;28;20028;-59
2022/10/06 04:25:37;;;;;;;10.30;2.45;;;;;;;13.89;63.99;102492.97;5074247;28;20793;-60
2022/10/06 04:28:02;;;;;;;16.83;2.75;;;;;;;13.93;64.13;102497.00;5073440;28;20032;-60
2022/10/06 04:30:28;;;;;;;12.77;2.30;;;;;;;13.91;63.70;102499.19;5073271;28;20036;-59
2022/10/06 04:32:54;;;;;;;12.27;2.50;;;;;;;13.88;63.73;102510.81;5068065;28;20045;-59
2022/10/06 04:35:19;;;;;;;9.25;2.22;;;;;;;13.78;63.96;102510.53;5071397;28;20048;-60
2022/10/06 04:37:45;;;;;;;8.57;2.15;;;;;;;13.73;63.69;102502.84;5072559;28;20113;-60
2022/10/06 04:40:11;;;;;;;14.90;2.85;;;;;;;13.70;63.87;102502.47;5060651;28;20124;-60
2022/10/06 04:42:36;;;;;;;10.90;2.28;;;;;;;13.74;63.76;102504.53;5065218;28;20036;-60
2022/10/06 04:45:03;;;;;;;13.10;2.83;;;;;;;13.64;63.51;102515.44;5070939;28;20028;-60
2022/10/06 04:47:28;;;;;;;11.73;2.67;;;;;;;13.59;63.95;102518.03;5055020;28;20024;-60
2022/10/06 04:49:53;;;;;;;13.95;2.63;;;;;;;13.67;63.82;102528.03;5061501;28;20110;-60
2022/10/06 04:52:19;;;;;;;17.02;2.38;;;;;;;13.64;63.99;102526.59;5064708;28;20036;-59
2022/10/06 04:54:44;;;;;;;17.25;2.90;;;;;;;13.59;64.08;102528.34;5086567;28;20016;-59
2022/10/06 04:57:10;;;;;;;9.45;2.90;;;;;;;13.61;63.85;102534.56;5067590;28;20124;-59
2022/10/06 05:02:19;;;;;;;13.35;2.85;;;;;;;13.60;63.87;102536.50;5065509;28;20090;-60
2022/10/06 05:04:45;;;;;;;12.70;2.58;;;;;;;13.53;64.09;102544.09;5079401;28;20025;-60
2022/10/06 05:07:10;;;;;;;12.30;3.08;;;;;;;13.47;64.01;102548.66;5093564;28;20448;-61
2022/10/06 05:09:35;;;;;;;15.20;3.28;;;;;;;13.45;63.77;102556.41;5067647;28;20028;-60
2022/10/06 05:12:01;;;;;;;10.90;3.05;;;;;;;13.45;63.97;102567.56;5053080;28;20032;-61
2022/10/06 05:14:26;;;;;;;13.45;3.10;;;;;;;13.49;63.88;102568.81;5053550;28;20024;-60
2022/10/06 05:16:51;;;;;;;14.52;2.83;;;;;;;13.42;63.68;102568.03;5053907;28;20481;-60
2022/10/06 05:19:16;;;;;;;13.45;3.00;;;;;;;13.46;63.57;102574.00;5061528;28;20032;-61
2022/10/06 05:21:42;;;;;;;13.70;2.92;;;;;;;13.41;63.73;102571.06;5052965;28;20384;-61
2022/10/06 05:24:07;;;;;;;18.65;2.70;;;;;;;13.41;63.66;102571.06;5061744;28;20424;-60
2022/10/06 05:26:34;;;;;;;13.45;3.10;;;;;;;13.35;63.46;102571.97;5058162;28;20107;-61
2022/10/06 05:29:00;;;;;;;11.80;3.03;;;;;;;13.32;63.99;102578.00;5052319;28;20028;-60
2022/10/06 05:31:30;;;;;;;12.52;2.97;;;;;;;13.31;63.68;102588.28;5067104;28;20037;-60
2022/10/06 05:33:57;;;;;;;13.93;3.08;;;;;;;13.37;63.47;102590.19;5066309;28;20522;-60
2022/10/06 05:36:25;;;;;;;12.88;3.35;;;;;;;13.36;63.55;102593.19;5065859;28;20035;-60
2022/10/06 05:38:50;;;;;;;17.13;3.63;;;;;;;13.29;63.72;102603.56;5055260;28;20048;-60
2022/10/06 05:41:19;;;;;;;11.55;2.97;;;;;;;13.31;63.57;102605.03;5062009;28;20392;-60
2022/10/06 05:43:46;;;;;;;15.68;2.72;;;;;;;13.34;63.54;102618.53;5067489;28;20028;-60
2022/10/06 05:46:19;;;;;;;15.50;3.58;;;;;;;13.30;63.90;102613.63;5051013;28;20039;-59
2022/10/06 05:58:51;;;;;;;15.57;3.80;;;;;;;13.24;63.29;102629.31;5029232;28;20499;-67
2022/10/06 06:01:22;;;;;;;15.63;3.10;;;;;;;13.21;63.83;102633.41;5026465;28;20161;-66
2022/10/06 06:03:51;;;;;;;10.98;3.00;;;;;;;13.23;63.38;102636.00;5016217;28;20501;-65
2022/10/06 06:06:18;;;;;;;19.27;3.10;;;;;;;13.17;63.42;102636.88;5030187;28;20029;-66
2022/10/06 06:12:06;;;;;;;14.32;2.75;;;;;;;13.11;63.80;102652.56;5011171;28;20076;-67
2022/10/06 06:17:15;;;;;;;17.33;3.58;;;;;;;13.08;63.44;102650.22;5028594;28;20122;-66
2022/10/06 06:26:26;;;;;;;15.77;3.28;;;;;;;13.03;64.18;102664.00;5030458;28;20155;-66
2022/10/06 06:28:53;;;;;;;21.85;4.03;;;;;;;13.03;64.25;102658.44;5029188;28;20029;-67
2022/10/06 06:34:40;;;;;;;15.23;3.55;;;;;;;13.03;64.01;102664.84;5026140;28;20104;-68
2022/10/06 06:37:08;;;;;;;17.80;3.15;;;;;;;13.01;64.36;102668.97;5030339;28;20038;-68
2022/10/06 06:39:33;;;;;;;16.23;2.90;;;;;;;13.07;63.79;102678.34;5031175;28;20033;-66
2022/10/06 06:48:44;;;;;;;14.45;2.88;;;;;;;13.08;64.05;102689.25;5029255;28;20056;-66
2022/10/06 06:51:10;;;;;;;19.83;3.10;;;;;;;12.99;64.07;102699.81;5024978;28;20118;-66
2022/10/06 06:53:37;;;;;;;15.65;3.17;;;;;;;12.98;64.24;102698.13;5028800;28;20064;-66
2022/10/06 06:59:24;;;;;;;22.80;3.30;;;;;;;13.11;64.09;102707.47;5012666;28;20045;-67
2022/10/06 07:01:50;;;;;;;10.38;3.50;;;;;;;13.09;63.86;102712.44;5025254;28;20029;-66
2022/10/06 07:04:16;;;;;;;15.48;3.67;;;;;;;13.10;63.81;102725.28;5027984;28;20029;-66
2022/10/06 07:10:03;;;;;;;15.82;3.17;;;;;;;13.14;64.04;102724.63;5030946;28;20111;-65
2022/10/06 07:30:46;;;;;;;19.27;3.20;;;;;;;13.30;64.31;102756.72;5010492;28;20048;-66
2022/10/06 07:40:14;;;;;;;13.00;3.38;;;;;;;13.62;63.80;102773.44;5027695;28;20110;-66
2022/10/06 07:42:52;;;;;;;11.82;2.97;;;;;;;13.67;63.73;102784.75;5028208;28;20034;-66
2022/10/06 07:45:38;;;;;;;18.05;3.67;;;;;;;13.79;63.70;102779.28;5029237;28;20687;-66
2022/10/06 07:48:23;;;;;;;14.38;3.50;;;;;;;13.91;63.59;102783.94;5030628;28;20053;-66
2022/10/06 07:50:51;;;;;;;18.83;3.60;;;;;;;13.99;63.27;102792.00;5029158;28;20119;-62
2022/10/06 07:53:17;;;;;;;17.05;3.10;;;;;;;14.09;63.15;102793.41;5025928;28;20022;-60
2022/10/06 07:55:45;;;;;;;11.80;2.58;;;;;;;14.42;68.09;102796.75;5014493;28;20503;-62
2022/10/06 07:58:14;;;;;;;11.10;1.98;;;;;;;14.62;65.21;102801.25;5013381;28;20025;-62
2022/10/06 08:04:05;;;;;;;13.88;2.90;;;;;;;15.21;64.15;102799.66;5029670;28;20053;-66
2022/10/06 08:06:31;;;;;;;12.65;2.88;;;;;;;15.31;62.74;102805.53;5020240;28;20045;-64
2022/10/06 08:08:56;;;;;;;13.07;2.63;;;;;;;15.55;62.29;102814.84;5029655;28;20072;-64
2022/10/06 08:11:22;;;;;;;14.13;3.03;;;;;;;15.51;60.33;102810.81;5025789;28;20472;-64
2022/10/06 08:13:47;;;;;;;12.30;2.88;;;;;;;15.68;60.70;102811.03;5027759;28;20487;-64
2022/10/06 08:16:18;;;;;;;10.13;2.40;;;;;;;15.84;60.32;102810.34;5029724;28;20026;-64
2022/10/06 08:18:48;;;;;;;15.68;2.90;;;;;;;15.87;60.03;102815.44;5029054;28;20163;-64
2022/10/06 08:21:20;;;;;;;12.57;2.65;;;;;;;16.01;59.30;102823.63;5029498;28;20064;-64
2022/10/06 08:27:08;;;;;;;15.38;3.20;;;;;;;16.23;58.40;102835.97;5028435;28;20048;-64
2022/10/06 08:29:34;;;;;;;13.60;2.75;;;;;;;16.32;57.77;102840.09;5029262;28;20017;-64
2022/10/06 08:31:59;;;;;;;10.50;2.65;;;;;;;16.38;58.20;102835.47;5029276;28;20030;-64
2022/10/06 08:41:50;;;;;;;15.02;3.45;;;;;;;16.68;58.01;102843.72;5012430;28;20048;-64
2022/10/06 08:44:59;;;;;;;13.90;3.22;;;;;;;16.79;58.43;102853.25;5025328;28;20399;-64
2022/10/06 08:54:34;;;;;;;19.17;3.22;;;;;;;16.95;56.73;102854.47;5030029;28;20053;-64
2022/10/06 08:57:15;;;;;;;14.63;3.05;;;;;;;17.04;56.85;102858.56;5030683;28;20037;-64
2022/10/06 09:03:03;;;;;;;12.77;2.85;;;;;;;17.06;55.98;102865.66;4993324;28;20177;-64
2022/10/06 09:05:30;;;;;;;13.70;3.33;;;;;;;17.12;55.55;102875.00;4993078;28;20038;-64
2022/10/06 09:08:33;;;;;;;13.23;2.75;;;;;;;17.13;55.78;102877.59;4992822;28;20409;-65
2022/10/06 09:11:29;;;;;;;17.05;3.13;;;;;;;17.18;55.72;102876.84;4991349;28;20117;-64
2022/10/06 09:14:02;;;;;;;11.80;2.40;;;;;;;17.28;55.24;102879.00;4974101;28;20397;-64
2022/10/06 09:26:33;;;;;;;14.40;3.00;;;;;;;17.52;53.65;102893.78;4993094;28;20055;-65
2022/10/06 09:28:59;;;;;;;13.60;2.75;;;;;;;17.58;53.94;102892.81;4986396;28;20042;-65
2022/10/06 09:48:38;;;;;;;11.07;3.00;;;;;;;17.97;52.66;102916.34;4989497;28;20045;-64
2022/10/06 09:51:13;;;;;;;13.55;2.50;;;;;;;17.97;52.43;102919.16;4988387;28;20038;-63
2022/10/06 09:57:48;;;;;;;13.32;2.72;;;;;;;18.11;53.74;102926.13;5002385;28;20551;-64
2022/10/06 10:00:27;;;;;;;12.63;2.38;;;;;;;18.18;52.85;102922.31;5031013;28;20065;-64
2022/10/06 10:06:28;;;;;;;11.57;2.60;;;;;;;18.06;52.24;102906.38;5022382;28;20163;-64
2022/10/06 10:09:18;;;;;;;13.18;2.45;;;;;;;18.19;52.54;102916.44;5027618;28;20484;-64
2022/10/06 10:17:53;;;;;;;15.75;2.28;;;;;;;18.26;50.92;102919.94;5024698;28;20682;-65
2022/10/06 10:20:22;;;;;;;11.25;2.15;;;;;;;18.30;50.42;102918.31;5029105;28;20036;-64
2022/10/06 10:22:48;;;;;;;9.88;2.03;;;;;;;18.34;50.27;102913.88;5023833;28;20045;-64
2022/10/06 10:28:55;;;;;;;7.45;2.17;;;;;;;18.54;50.40;102916.16;5024712;28;20095;-65
2022/10/06 10:31:37;;;;;;;10.63;2.22;;;;;;;18.49;48.47;102924.53;5028218;28;20040;-65
2022/10/06 10:34:30;;;;;;;11.68;2.50;;;;;;;18.51;50.55;102930.78;5031601;28;20060;-65
2022/10/06 10:40:41;;;;;;;10.65;2.25;;;;;;;18.62;50.08;102915.75;5026809;28;20040;-65
2022/10/06 10:43:14;;;;;;;7.75;2.33;;;;;;;18.71;47.77;102918.19;5031268;28;20033;-65
2022/10/06 10:49:17;;;;;;;9.20;1.80;;;;;;;18.69;47.44;102909.94;5030719;28;20045;-64
2022/10/06 10:51:56;;;;;;;12.15;2.00;;;;;;;18.71;47.68;102919.03;5024184;28;20056;-64
2022/10/06 11:01:52;;;;;;;13.88;2.30;;;;;;;18.78;48.37;102928.09;4997678;28;20064;-66
2022/10/06 11:21:14;;;;;;;11.20;2.83;;;;;;;19.00;46.76;102924.50;5023034;28;20071;-65
2022/10/06 11:24:00;;;;;;;9.73;2.03;;;;;;;18.97;47.32;102925.84;5021972;28;20030;-64
2022/10/06 11:26:40;;;;;;;12.15;2.50;;;;;;;19.02;46.39;102933.53;5019295;28;20026;-65
2022/10/06 11:29:27;;;;;;;9.50;2.20;;;;;;;18.96;46.69;102929.78;5027731;28;20033;-64
2022/10/06 11:32:19;;;;;;;9.77;2.38;;;;;;;18.93;47.11;102938.75;5025766;28;20025;-64
2022/10/06 11:38:40;;;;;;;12.55;2.67;;;;;;;18.89;47.13;102921.53;5010804;28;20132;-64
2022/10/06 11:41:22;;;;;;;8.02;2.40;;;;;;;18.93;47.23;102924.69;5024041;28;20045;-64
2022/10/06 11:43:54;;;;;;;;;;;;;;;19.01;48.67;102918.59;5011313;28;20088;-65
2022/10/06 11:46:41;;;;;;;9.00;2.55;;;;;;;18.96;46.37;102921.34;5024318;28;20079;-64
2022/10/06 11:49:28;;;;;;;9.15;2.15;;;;;;;18.97;47.59;102923.03;5026797;28;20033;-64
2022/10/06 11:51:54;;;;;;;10.65;2.22;;;;;;;18.96;46.46;102921.34;5025297;28;20129;-65
2022/10/06 11:54:38;;;;;;;7.45;2.03;;;;;;;18.99;47.52;102915.22;5027022;28;20108;-65
2022/10/06 11:57:26;;;;;;;8.82;1.98;;;;;;;19.01;47.96;102915.78;5028116;28;20060;-66
2022/10/06 12:00:02;;;;;;;10.10;1.95;;;;;;;19.01;46.84;102915.78;5017442;28;20722;-66
2022/10/06 12:06:46;;;;;;;7.57;2.05;;;;;;;19.01;47.09;102912.13;5014312;28;20433;-66
2022/10/06 12:09:37;;;;;;;7.65;2.03;;;;;;;18.98;47.29;102923.91;5024767;28;20037;-67
2022/10/06 12:16:02;;;;;;;7.65;1.80;;;;;;;18.95;46.57;102901.94;5031034;28;20057;-67
2022/10/06 12:18:48;;;;;;;6.95;1.70;;;;;;;18.92;45.68;102902.44;5030999;28;20544;-67
2022/10/06 12:21:43;;;;;;;9.63;1.77;;;;;;;18.89;45.43;102904.66;5032852;28;20045;-67
2022/10/06 12:27:35;;;;;;;6.28;2.00;;;;;;;18.90;45.67;102888.59;5033673;28;20144;-67
2022/10/06 12:30:26;;;;;;;9.23;2.08;;;;;;;18.88;44.89;102897.31;5033023;28;20385;-67
2022/10/06 12:39:35;;;;;;;7.82;1.42;;;;;;;18.79;45.21;102887.63;5033479;28;20080;-67
2022/10/06 12:42:05;;;;;;;4.95;1.27;;;;;;;18.82;44.55;102900.31;5033085;28;20041;-67
2022/10/06 12:44:39;;;;;;;6.15;1.50;;;;;;;18.80;45.70;102894.09;5031389;28;20049;-67
2022/10/06 12:47:20;;;;;;;6.93;1.73;;;;;;;18.81;45.19;102893.84;5033384;28;20033;-67
2022/10/06 12:53:15;;;;;;;6.65;1.73;;;;;;;18.73;44.31;102888.66;5029937;28;20468;-67
2022/10/06 12:55:51;;;;;;;6.65;1.40;;;;;;;18.73;44.45;102901.88;5032599;28;20416;-67
2022/10/06 12:58:27;;;;;;;6.85;1.42;;;;;;;18.69;44.28;102887.44;5032351;28;20112;-67
2022/10/06 13:04:41;;;;;;;8.15;1.45;;;;;;;18.65;44.77;102891.88;5032915;28;20052;-67
2022/10/06 13:07:28;;;;;;;7.63;1.63;;;;;;;18.65;44.53;102892.72;5012941;28;20042;-67
2022/10/06 13:13:23;;;;;;;6.93;1.60;;;;;;;18.60;44.19;102878.59;5011849;28;20041;-67
2022/10/06 13:15:54;;;;;;;7.05;1.70;;;;;;;18.61;43.40;102876.63;5018897;28;20089;-67
2022/10/06 13:18:21;;;;;;;6.97;1.70;;;;;;;18.60;43.59;102878.59;5024529;28;20053;-67
2022/10/06 13:30:59;;;;;;;4.32;1.30;;;;;;;18.53;42.82;102877.91;5012818;28;20671;-66
2022/10/06 13:33:33;;;;;;;7.15;1.58;;;;;;;18.57;43.45;102881.06;5024225;28;20148;-63
2022/10/06 13:42:46;;;;;;;4.70;1.30;;;;;;;18.50;43.92;102874.78;5013838;28;20040;-68
2022/10/06 13:45:14;;;;;;;7.50;1.83;;;;;;;18.50;43.78;102881.25;5010265;28;20026;-68
2022/10/06 13:51:02;;;;;;;5.95;1.40;;;;;;;18.49;43.05;102878.69;5027992;28;20147;-68
2022/10/06 13:53:29;;;;;;;5.05;1.40;;;;;;;18.48;42.82;102885.44;5025867;28;20083;-69
2022/10/06 13:55:55;;;;;;;4.90;1.10;;;;;;;18.45;42.54;102881.16;5029337;28;20036;-69
2022/10/06 14:01:42;;;;;;;5.38;1.35;;;;;;;18.43;43.20;102874.09;5017896;28;20052;-68
2022/10/06 14:04:11;;;;;;;4.63;1.13;;;;;;;18.38;43.08;102875.72;5027933;28;20017;-67
2022/10/06 14:06:42;;;;;;;5.10;1.48;;;;;;;18.37;43.45;102882.44;5029028;28;20156;-68
2022/10/06 14:09:18;;;;;;;3.58;1.27;;;;;;;18.34;42.88;102885.78;5025883;28;20038;-67
2022/10/06 14:11:44;;;;;;;4.68;1.70;;;;;;;18.34;42.86;102880.16;5028886;28;20060;-66
2022/10/06 14:14:14;;;;;;;6.57;1.35;;;;;;;18.28;43.52;102888.78;5029028;28;20472;-66
2022/10/06 14:16:58;;;;;;;4.85;1.42;;;;;;;18.31;44.34;102883.50;5026668;28;20037;-67
2022/10/06 14:19:39;;;;;;;7.45;1.80;;;;;;;18.28;43.57;102875.56;5023330;28;20026;-67
2022/10/06 14:22:25;;;;;;;7.10;1.50;;;;;;;18.25;43.39;102870.44;5028739;28;20711;-68
2022/10/06 14:28:12;;;;;;;4.43;1.20;;;;;;;18.25;43.37;102887.31;5024186;28;20052;-67
2022/10/06 14:30:37;;;;;;;5.55;1.35;;;;;;;18.26;43.28;102883.38;5020279;28;20053;-67
2022/10/06 14:33:03;;;;;;;5.82;1.52;;;;;;;18.25;43.39;102887.31;5026344;28;20473;-68
2022/10/06 14:38:50;;;;;;;7.47;1.67;;;;;;;18.20;43.33;102880.78;5025308;28;20056;-68
2022/10/06 14:41:18;;;;;;;9.15;1.80;;;;;;;18.19;43.16;102882.69;5024969;28;20037;-67
2022/10/06 14:43:46;;;;;;;7.45;1.83;;;;;;;18.16;42.81;102880.44;5026016;28;20032;-67
2022/10/06 14:52:58;;;;;;;6.82;1.60;;;;;;;18.11;42.96;102869.06;5026579;28;20090;-67
2022/10/06 14:55:29;;;;;;;9.57;1.83;;;;;;;18.10;43.31;102871.03;5024298;28;20496;-66
2022/10/06 14:57:58;;;;;;;6.70;1.60;;;;;;;18.07;43.01;102879.13;5029046;28;20067;-67
2022/10/06 15:00:27;;;;;;;4.28;1.48;;;;;;;18.06;43.15;102881.09;5027312;28;20110;-66
2022/10/06 15:09:06;;;;;;;7.22;1.70;;;;;;;18.00;42.95;102865.25;5004655;28;20042;-66
2022/10/06 15:11:33;;;;;;;8.18;1.95;;;;;;;17.98;43.21;102864.66;5029534;28;20382;-67
2022/10/06 15:17:21;;;;;;;10.32;2.80;;;;;;;17.96;43.22;102863.19;5027507;28;20107;-66
2022/10/06 15:19:47;;;;;;;10.15;2.58;;;;;;;17.96;43.51;102855.63;5027407;28;20076;-66
2022/10/06 15:22:12;;;;;;;7.00;2.45;;;;;;;17.98;43.15;102863.78;5030245;28;20501;-67
2022/10/06 15:24:37;;;;;;;4.60;1.67;;;;;;;17.96;43.34;102850.00;5029301;28;20065;-65
2022/10/06 15:29:46;;;;;;;6.05;1.60;;;;;;;17.94;43.90;102849.41;5025800;28;20032;-65
2022/10/06 15:32:14;;;;;;;7.93;1.90;;;;;;;17.92;43.44;102846.00;5028132;28;20029;-65
2022/10/06 15:38:01;;;;;;;7.45;1.63;;;;;;;17.90;43.48;102840.63;5013648;28;20057;-65
2022/10/06 15:50:32;;;;;;;5.87;2.03;;;;;;;17.82;43.73;102838.25;5026222;28;20523;-64
2022/10/06 15:52:57;;;;;;;7.05;1.92;;;;;;;17.81;43.37;102842.16;5026457;28;20033;-66
2022/10/06 16:02:14;;;;;;;4.57;1.60;;;;;;;17.68;44.53;102839.63;5012293;28;20072;-67